Time;durP1;ratioP1;P1;durP2;ratioP2;P2;SDS_P1;SDS_P2;PMS_P1;PMS_P2;Temp;Humidity;BMP_temperature;BMP_pressure;BME280_temperature;BME280_humidity;BME280_pressure;Samples;Min_cycle;Max_cycle;Signal;HPM_P1;HPM_P2
2022/04/18 00:01:55;;;;;;;;;3.50;3.00;;;;;19.18;42.50;102018.38;5075548;28;9573;-73
2022/04/18 00:04:23;;;;;;;;;4.00;3.00;;;;;19.17;42.41;102021.88;5076697;28;8779;-72
2022/04/18 00:06:48;;;;;;;;;2.25;2.25;;;;;19.16;42.35;102017.44;5076294;28;8848;-72
2022/04/18 00:09:14;;;;;;;;;4.75;3.25;;;;;19.14;42.52;102014.81;5075875;28;9413;-73
2022/04/18 00:11:39;;;;;;;;;2.75;2.75;;;;;19.13;42.40;102014.78;5076758;28;8896;-73
2022/04/18 00:14:10;;;;;;;;;3.00;2.25;;;;;19.14;42.56;102013.94;5074363;28;8783;-73
2022/04/18 00:16:36;;;;;;;;;3.00;3.00;;;;;19.12;42.80;102016.56;5075882;28;9040;-72
2022/04/18 00:19:02;;;;;;;;;1.50;1.00;;;;;19.11;42.64;102016.56;5076116;28;9742;-72
2022/04/18 00:21:27;;;;;;;;;2.00;2.00;;;;;19.09;42.76;102019.19;5076629;28;8779;-72
2022/04/18 00:23:53;;;;;;;;;2.00;2.00;;;;;19.08;42.79;102014.75;5075284;28;8772;-72
2022/04/18 00:26:18;;;;;;;;;2.00;2.00;;;;;19.08;42.41;102004.19;5076832;28;8796;-72
2022/04/18 00:28:43;;;;;;;;;4.00;4.00;;;;;19.08;42.34;102011.25;5075472;28;8918;-72
2022/04/18 00:31:09;;;;;;;;;5.00;5.00;;;;;19.06;42.61;102005.06;5076432;28;8779;-72
2022/04/18 00:33:34;;;;;;;;;3.75;3.25;;;;;19.07;42.55;102009.47;5076403;28;8787;-72
2022/04/18 00:36:00;;;;;;;;;4.00;4.00;;;;;19.05;42.61;101998.88;5075643;28;8775;-72
2022/04/18 00:38:26;;;;;;;;;3.00;3.00;;;;;19.06;42.57;102005.94;5076097;28;8771;-73
2022/04/18 00:40:52;;;;;;;;;4.00;3.00;;;;;19.05;42.41;102004.16;5075787;28;9445;-72
2022/04/18 00:43:17;;;;;;;;;3.00;2.75;;;;;19.03;42.45;102003.28;5072095;28;8890;-71
2022/04/18 00:45:48;;;;;;;;;3.25;3.25;;;;;19.04;42.36;102002.41;5075215;28;8775;-72
2022/04/18 00:48:13;;;;;;;;;2.50;2.50;;;;;19.04;42.27;102004.19;5075870;28;8787;-72
2022/04/18 00:50:40;;;;;;;;;3.00;3.00;;;;;19.04;42.59;102004.19;5073435;28;9749;-71
2022/04/18 00:53:07;;;;;;;;;5.50;5.00;;;;;19.04;42.59;101996.25;5072770;28;8790;-72
2022/04/18 00:55:33;;;;;;;;;3.50;3.00;;;;;19.04;42.45;102004.19;5073357;28;9664;-73
2022/04/18 00:58:00;;;;;;;;;3.00;3.00;;;;;19.03;42.45;102005.03;5071993;28;9595;-73
2022/04/18 01:00:26;;;;;;;;;4.00;4.00;;;;;19.02;42.46;101995.31;5076823;28;9628;-72
2022/04/18 01:02:51;;;;;;;;;5.00;5.00;;;;;19.01;42.39;101998.88;5073140;28;10372;-72
2022/04/18 01:05:17;;;;;;;;;3.25;3.25;;;;;19.02;42.49;102003.28;5073427;28;9503;-72
2022/04/18 01:07:43;;;;;;;;;4.00;4.00;;;;;18.99;42.68;101993.56;5073067;28;8810;-71
2022/04/18 01:10:08;;;;;;;;;5.00;5.00;;;;;18.99;42.56;102001.50;5073166;28;8798;-73
2022/04/18 01:12:34;;;;;;;;;4.00;4.00;;;;;18.98;42.08;101997.06;5071679;28;8843;-72
2022/04/18 01:15:00;;;;;;;;;4.00;4.00;;;;;19.00;42.24;102005.03;5072887;28;8894;-72
2022/04/18 01:17:25;;;;;;;;;5.50;4.75;;;;;18.99;42.47;102000.59;5072378;28;9651;-72
2022/04/18 01:19:51;;;;;;;;;4.75;4.75;;;;;18.97;42.51;102000.59;5071936;28;8759;-72
2022/04/18 01:22:18;;;;;;;;;4.25;4.25;;;;;18.96;42.52;101996.19;5072710;28;8881;-72
2022/04/18 01:30:11;;;;;;;;;4.00;4.00;;;;;18.95;42.39;101982.94;5072526;28;9581;-73
2022/04/18 01:32:37;;;;;;;;;5.00;4.75;;;;;18.95;42.32;101986.47;5071725;28;9484;-72
2022/04/18 01:35:04;;;;;;;;;5.75;4.25;;;;;18.94;42.49;101994.41;5072219;28;9362;-73
2022/04/18 01:37:29;;;;;;;;;5.25;5.25;;;;;18.93;42.48;101988.25;5072009;28;8787;-72
2022/04/18 01:39:55;;;;;;;;;6.25;4.50;;;;;18.92;42.27;101986.47;5071277;28;10353;-72
2022/04/18 01:42:20;;;;;;;;;3.00;3.00;;;;;18.98;43.73;101986.50;5072410;28;8755;-83
2022/04/18 01:44:46;;;;;;;;;3.50;3.50;;;;;18.97;42.78;101995.28;5071765;28;8871;-73
2022/04/18 01:47:11;;;;;;;;;4.00;3.50;;;;;18.97;42.55;101981.22;5071139;28;8855;-72
2022/04/18 01:49:36;;;;;;;;;6.00;4.75;;;;;18.94;42.65;101987.34;5072162;28;8778;-73
2022/04/18 01:52:02;;;;;;;;;4.00;4.00;;;;;18.92;42.71;101978.53;5071845;28;8771;-73
2022/04/18 01:54:27;;;;;;;;;5.50;5.50;;;;;18.91;42.69;101978.50;5071341;28;8779;-73
2022/04/18 01:56:52;;;;;;;;;8.50;8.50;;;;;18.92;42.44;101986.47;5071759;28;8752;-73
2022/04/18 01:59:18;;;;;;;;;6.50;6.50;;;;;18.91;42.56;101975.84;5071747;28;8774;-73
2022/04/18 02:01:43;;;;;;;;;7.00;7.00;;;;;18.90;42.68;101980.25;5070792;28;8789;-73
2022/04/18 02:04:08;;;;;;;;;6.00;6.00;;;;;18.89;42.54;101974.97;5071758;28;8779;-73
2022/04/18 02:06:34;;;;;;;;;5.00;5.00;;;;;18.90;42.70;101972.31;5071746;28;8846;-72
2022/04/18 02:09:02;;;;;;;;;7.50;6.00;;;;;18.88;42.63;101971.44;5070657;28;8819;-73
2022/04/18 02:11:28;;;;;;;;;7.00;6.00;;;;;18.87;42.56;101967.03;5071287;28;8773;-72
2022/04/18 02:13:53;;;;;;;;;6.00;5.50;;;;;18.87;42.71;101966.13;5070906;28;9809;-73
2022/04/18 02:16:19;;;;;;;;;7.00;7.00;;;;;18.85;42.48;101966.16;5070634;28;8807;-72
2022/04/18 02:18:45;;;;;;;;;7.50;5.00;;;;;18.85;42.67;101966.16;5070622;28;8885;-72
2022/04/18 02:21:12;;;;;;;;;8.00;8.00;;;;;18.86;42.48;101969.69;5070226;28;9533;-72
2022/04/18 02:23:41;;;;;;;;;8.25;6.50;;;;;18.85;42.59;101966.16;5070805;28;11098;-74
2022/04/18 02:26:09;;;;;;;;;8.00;6.00;;;;;18.86;42.41;101967.03;5070543;28;9601;-72
2022/04/18 02:28:35;;;;;;;;;6.00;6.00;;;;;18.83;42.56;101958.19;5070490;28;9617;-72
2022/04/18 02:31:01;;;;;;;;;8.50;8.50;;;;;18.84;42.55;101956.44;5070828;28;9708;-72
2022/04/18 02:33:27;;;;;;;;;7.00;7.00;;;;;18.84;42.55;101959.06;5071140;28;10670;-72
2022/04/18 02:35:52;;;;;;;;;6.00;6.00;;;;;18.83;42.34;101957.28;5070065;28;9809;-72
2022/04/18 02:38:17;;;;;;;;;7.00;7.00;;;;;18.82;42.83;101963.44;5071115;28;8756;-72
2022/04/18 02:40:46;;;;;;;;;8.00;8.00;;;;;18.81;42.34;101964.34;5070734;28;8784;-73
2022/04/18 02:43:12;;;;;;;;;6.25;5.00;;;;;18.80;42.55;101955.53;5070120;28;9511;-74
2022/04/18 02:45:37;;;;;;;;;5.25;5.25;;;;;18.82;42.52;101953.75;5070722;28;9543;-73
2022/04/18 02:48:03;;;;;;;;;7.50;7.00;;;;;18.80;42.51;101954.63;5070430;28;8842;-73
2022/04/18 02:50:28;;;;;;;;;8.25;8.00;;;;;18.80;42.30;101949.34;5070139;28;8777;-72
2022/04/18 02:52:54;;;;;;;;;8.50;7.75;;;;;18.79;42.49;101943.16;5070612;28;8779;-73
2022/04/18 02:55:19;;;;;;;;;8.50;8.50;;;;;18.80;42.63;101952.88;5071014;28;9527;-72
2022/04/18 02:57:45;;;;;;;;;8.00;7.50;;;;;18.78;42.24;101954.63;5070140;28;8776;-73
2022/04/18 03:00:11;;;;;;;;;7.50;7.50;;;;;18.79;42.38;101953.75;5070775;28;8768;-73
2022/04/18 03:02:38;;;;;;;;;10.00;8.00;;;;;18.79;42.42;101960.78;5070707;28;8874;-72
2022/04/18 03:05:04;;;;;;;;;9.00;9.00;;;;;18.78;42.48;101956.41;5069035;28;10233;-72
2022/04/18 03:07:30;;;;;;;;;6.75;6.75;;;;;18.78;42.66;101951.13;5070317;28;9891;-71
2022/04/18 03:09:56;;;;;;;;;7.00;7.00;;;;;18.80;42.50;101947.59;5070527;28;9783;-72
2022/04/18 03:12:22;;;;;;;;;7.00;7.00;;;;;18.80;42.71;101937.00;5069833;28;10433;-72
2022/04/18 03:14:47;;;;;;;;;8.00;8.00;;;;;18.80;42.71;101938.75;5070123;28;8848;-72
2022/04/18 03:17:12;;;;;;;;;7.00;7.00;;;;;18.77;42.52;101928.16;5070208;28;8803;-72
2022/04/18 03:19:38;;;;;;;;;10.00;8.50;;;;;18.77;42.73;101933.47;5069947;28;8800;-72
2022/04/18 03:22:05;;;;;;;;;7.50;7.50;;;;;18.75;42.81;101929.91;5070229;28;8792;-72
2022/04/18 03:24:31;;;;;;;;;8.50;8.50;;;;;18.74;42.88;101931.69;5069734;28;8779;-73
2022/04/18 03:26:57;;;;;;;;;6.50;6.50;;;;;18.73;42.62;101942.25;5070097;28;9755;-72
2022/04/18 03:29:22;;;;;;;;;7.50;7.50;;;;;18.74;42.71;101942.28;5070475;28;8787;-72
2022/04/18 03:31:49;;;;;;;;;8.00;8.00;;;;;18.74;42.83;101934.34;5069837;28;8775;-72
2022/04/18 03:34:14;;;;;;;;;9.25;9.25;;;;;18.75;42.53;101935.19;5070356;28;8806;-72
2022/04/18 03:42:09;;;;;;;;;8.25;8.25;;;;;18.73;42.33;101934.31;5070241;28;9738;-72
2022/04/18 03:44:38;;;;;;;;;4.00;4.00;;;;;18.73;42.61;101932.56;5070038;28;10563;-71
2022/04/18 03:47:03;;;;;;;;;9.00;6.25;;;;;18.69;42.79;101928.13;5068928;28;9647;-73
2022/04/18 03:49:29;;;;;;;;;11.75;10.50;;;;;18.72;42.72;101927.25;5069986;28;9788;-71
2022/04/18 03:51:54;;;;;;;;;8.00;8.00;;;;;18.73;42.46;101926.38;5070211;28;8787;-72
2022/04/18 03:54:19;;;;;;;;;7.50;7.00;;;;;18.71;42.71;101929.00;5073582;28;8768;-72
2022/04/18 03:56:44;;;;;;;;;10.00;10.00;;;;;18.71;42.60;101929.00;5069871;28;8796;-72
2022/04/18 03:59:12;;;;;;;;;9.75;9.50;;;;;18.70;42.45;101929.00;5069872;28;8755;-72
2022/04/18 04:01:38;;;;;;;;;9.00;9.00;;;;;18.69;42.62;101922.84;5069056;28;8779;-72
2022/04/18 04:04:03;;;;;;;;;7.50;7.50;;;;;18.71;42.45;101930.75;5069459;28;9892;-72
2022/04/18 04:06:31;;;;;;;;;6.50;6.50;;;;;18.70;42.41;101921.97;5069609;28;8825;-72
2022/04/18 04:08:56;;;;;;;;;8.00;8.00;;;;;18.69;42.12;101917.53;5068734;28;8905;-73
2022/04/18 04:11:22;;;;;;;;;10.00;10.00;;;;;18.70;42.32;101924.63;5069772;28;10783;-72
2022/04/18 04:13:47;;;;;;;;;6.25;6.25;;;;;18.69;42.48;101922.84;5068179;28;8891;-71
2022/04/18 04:16:12;;;;;;;;;8.50;8.50;;;;;18.68;42.42;101915.75;5069671;28;8794;-72
2022/04/18 04:18:40;;;;;;;;;6.00;6.00;;;;;18.68;42.31;101917.53;5073231;28;8795;-73
2022/04/18 04:21:06;;;;;;;;;9.25;9.00;;;;;18.69;42.33;101916.66;5072636;28;8756;-72
2022/04/18 04:23:31;;;;;;;;;8.00;8.00;;;;;18.66;42.37;101911.34;5073235;28;9901;-72
2022/04/18 04:25:56;;;;;;;;;9.75;9.75;;;;;18.67;42.27;101907.84;5073121;28;8833;-72
2022/04/18 04:28:21;;;;;;;;;12.50;10.00;;;;;18.67;42.51;101913.13;5072436;28;8791;-72
2022/04/18 04:30:47;;;;;;;;;7.75;7.75;;;;;18.67;42.42;101918.41;5072566;28;8845;-72
2022/04/18 04:33:15;;;;;;;;;10.00;10.00;;;;;18.65;42.36;101915.75;5072972;28;8760;-73
2022/04/18 04:35:40;;;;;;;;;8.25;8.25;;;;;18.66;42.23;101920.19;5072501;28;8779;-71
2022/04/18 04:38:06;;;;;;;;;8.50;8.50;;;;;18.66;42.38;101921.94;5072429;28;9789;-72
2022/04/18 04:40:37;;;;;;;;;7.50;7.50;;;;;18.65;42.26;101920.16;5072890;28;8796;-72
2022/04/18 04:43:02;;;;;;;;;8.75;8.75;;;;;18.64;42.78;101926.31;5071087;28;8913;-71
2022/04/18 04:45:27;;;;;;;;;9.00;9.00;;;;;18.64;42.28;101931.59;5072940;28;10051;-73
2022/04/18 04:47:53;;;;;;;;;9.75;9.00;;;;;18.64;42.58;101943.06;5072284;28;8795;-72
2022/04/18 04:50:18;;;;;;;;;8.50;7.50;;;;;18.62;42.72;101936.91;5071591;28;8768;-72
2022/04/18 04:52:43;;;;;;;;;7.50;7.50;;;;;18.66;42.58;101940.44;5072307;28;8795;-72
2022/04/18 04:55:13;;;;;;;;;7.50;7.50;;;;;18.66;45.96;101935.16;5072738;28;8764;-72
2022/04/18 04:57:38;;;;;;;;;8.75;8.75;;;;;18.65;43.05;101930.75;5071925;28;9549;-72
2022/04/18 05:00:04;;;;;;;;;8.00;8.00;;;;;18.64;42.54;101931.59;5072132;28;9960;-72
2022/04/18 05:02:29;;;;;;;;;8.75;7.75;;;;;18.63;42.86;101925.44;5072872;28;8847;-72
2022/04/18 05:04:55;;;;;;;;;8.75;8.75;;;;;18.65;42.56;101925.44;5071718;28;9855;-72
2022/04/18 05:07:20;;;;;;;;;9.25;9.25;;;;;18.64;42.97;101923.66;5072002;28;8851;-72
2022/04/18 05:09:45;;;;;;;;;8.50;8.50;;;;;18.64;42.59;101932.50;5072005;28;8857;-73
2022/04/18 05:12:10;;;;;;;;;8.75;8.00;;;;;18.63;42.54;101928.06;5071783;28;8774;-73
2022/04/18 05:14:36;;;;;;;;;5.50;5.50;;;;;18.63;42.88;101932.50;5072273;28;8763;-73
2022/04/18 05:17:02;;;;;;;;;7.50;7.00;;;;;18.61;42.82;101916.63;5071088;28;8841;-72
2022/04/18 05:19:27;;;;;;;;;9.00;8.00;;;;;18.60;42.82;101917.47;5072224;28;8775;-72
2022/04/18 05:21:52;;;;;;;;;6.50;6.50;;;;;18.63;42.56;101919.28;5053628;28;10556;-72
2022/04/18 05:24:18;;;;;;;;;8.00;8.00;;;;;18.61;42.48;101910.44;5071506;28;8763;-73
2022/04/18 05:26:46;;;;;;;;;6.50;6.50;;;;;18.62;42.46;101913.09;5071976;28;8824;-73
2022/04/18 05:29:12;;;;;;;;;6.50;6.50;;;;;18.63;42.58;101909.56;5071737;28;8772;-73
2022/04/18 05:31:37;;;;;;;;;8.00;8.00;;;;;18.63;42.37;101908.69;5071372;28;9760;-72
2022/04/18 05:34:02;;;;;;;;;7.00;7.00;;;;;18.61;42.75;101903.38;5071934;28;8876;-72
2022/04/18 05:36:29;;;;;;;;;4.75;4.75;;;;;18.63;42.67;101911.34;5071728;28;8779;-72
2022/04/18 05:38:54;;;;;;;;;9.00;8.00;;;;;18.64;42.69;101913.09;5070955;28;8881;-72
2022/04/18 05:41:19;;;;;;;;;6.25;6.25;;;;;18.60;42.35;101900.72;5071935;28;10482;-73
2022/04/18 05:43:46;;;;;;;;;5.50;5.50;;;;;18.64;42.42;101913.97;5071276;28;8763;-72
2022/04/18 05:46:11;;;;;;;;;7.25;7.25;;;;;18.63;42.66;101919.28;5071205;28;8788;-72
2022/04/18 05:48:51;;;;;;;;;8.00;8.00;;;;;18.63;42.60;101927.22;5071740;28;9935;-72
2022/04/18 05:51:17;;;;;;;;;8.00;8.00;;;;;18.63;42.43;101919.28;5071921;28;8763;-72
2022/04/18 05:53:42;;;;;;;;;8.00;7.00;;;;;18.63;42.53;101927.22;5070633;28;9928;-72
2022/04/18 05:56:10;;;;;;;;;8.00;8.00;;;;;18.61;42.40;101929.84;5071324;28;8764;-72
2022/04/18 05:58:36;;;;;;;;;4.25;4.25;;;;;18.62;42.48;101930.72;5071274;28;8837;-72
2022/04/18 06:01:01;;;;;;;;;8.00;8.00;;;;;18.62;42.31;101925.44;5069968;28;9771;-73
2022/04/18 06:03:26;;;;;;;;;7.25;7.25;;;;;18.62;42.63;101923.69;5071520;28;8803;-73
2022/04/18 06:05:51;;;;;;;;;7.50;7.50;;;;;18.61;42.46;101923.66;5071101;28;8771;-72
2022/04/18 06:08:17;;;;;;;;;8.00;7.25;;;;;18.61;42.30;101928.94;5070692;28;8818;-73
2022/04/18 06:10:42;;;;;;;;;5.25;5.25;;;;;18.63;42.31;101928.06;5071391;28;8801;-73
2022/04/18 06:13:10;;;;;;;;;6.25;6.25;;;;;18.62;42.71;101930.72;5071223;28;8867;-72
2022/04/18 06:15:36;;;;;;;;;7.50;5.25;;;;;18.62;42.77;101930.72;5070820;28;8790;-73
2022/04/18 06:18:01;;;;;;;;;4.75;4.75;;;;;18.62;42.40;101933.38;5071040;28;9818;-73
2022/04/18 06:20:27;;;;;;;;;8.25;5.25;;;;;18.63;42.37;101927.22;5070882;28;9531;-73
2022/04/18 06:22:52;;;;;;;;;7.50;7.50;;;;;18.63;42.29;101928.06;5070953;28;8818;-73
2022/04/18 06:25:20;;;;;;;;;6.50;4.00;;;;;18.63;42.50;101927.22;5070862;28;8790;-74
2022/04/18 06:27:45;;;;;;;;;5.00;5.00;;;;;18.64;42.39;101937.78;5069455;28;8949;-73
2022/04/18 06:30:13;;;;;;;;;7.50;5.75;;;;;18.66;42.49;101937.81;5071351;28;9848;-73
2022/04/18 06:32:38;;;;;;;;;5.00;5.00;;;;;18.72;43.68;101930.78;5072209;28;8763;-73
2022/04/18 06:35:05;;;;;;;;;5.00;4.00;;;;;18.74;43.45;101931.69;5071922;28;9841;-73
2022/04/18 06:37:32;;;;;;;;;7.00;7.00;;;;;18.74;44.69;101934.34;5070125;28;8976;-72
2022/04/18 06:40:00;;;;;;;;;4.75;3.00;;;;;18.74;45.06;101928.16;5069666;28;9701;-72
2022/04/18 06:42:25;;;;;;;;;4.25;4.25;;;;;18.72;43.62;101932.53;5070455;28;9760;-72
2022/04/18 06:44:51;;;;;;;;;3.75;3.75;;;;;18.72;44.42;101933.44;5075352;28;9963;-71
2022/04/18 06:47:17;;;;;;;;;4.25;4.00;;;;;18.75;45.24;101933.44;5070304;28;9738;-71
2022/04/18 06:49:42;;;;;;;;;5.25;4.50;;;;;18.74;45.00;101931.69;5071226;28;8760;-72
2022/04/18 06:52:08;;;;;;;;;4.25;3.75;;;;;18.76;45.79;101937.88;5071059;28;9813;-72
2022/04/18 06:54:33;;;;;;;;;4.50;4.50;;;;;18.74;45.08;101944.91;5070458;28;8784;-73
2022/04/18 06:57:01;;;;;;;;;4.50;4.50;;;;;18.73;45.08;101944.91;5068217;28;8823;-72
2022/04/18 06:59:30;;;;;;;;;3.25;3.25;;;;;18.77;45.30;101946.69;5070666;28;8780;-72
2022/04/18 07:01:57;;;;;;;;;2.75;2.75;;;;;18.77;45.24;101946.69;5070023;28;9735;-72
2022/04/18 07:04:23;;;;;;;;;4.75;4.75;;;;;18.73;45.42;101940.50;5069220;28;9651;-72
2022/04/18 07:06:48;;;;;;;;;4.25;4.25;;;;;18.77;45.92;101939.63;5068677;28;9918;-73
2022/04/18 07:09:13;;;;;;;;;5.00;4.00;;;;;18.73;44.78;101945.78;5070206;28;9524;-72
2022/04/18 07:11:41;;;;;;;;;2.75;2.75;;;;;18.75;44.88;101941.38;5069666;28;8776;-72
2022/04/18 07:14:06;;;;;;;;;4.00;4.00;;;;;18.78;45.17;101945.81;5069542;28;8806;-71
2022/04/18 07:16:31;;;;;;;;;2.00;2.00;;;;;18.77;45.15;101942.28;5067582;28;9745;-71
2022/04/18 07:19:00;;;;;;;;;3.75;3.00;;;;;18.79;45.17;101943.16;5070273;28;8806;-72
2022/04/18 07:21:27;;;;;;;;;3.00;3.00;;;;;18.77;45.08;101946.69;5070250;28;8790;-72
2022/04/18 07:23:53;;;;;;;;;4.00;4.00;;;;;18.81;45.13;101945.84;5069146;28;9663;-73
2022/04/18 07:26:19;;;;;;;;;4.00;4.00;;;;;18.80;45.22;101941.41;5068462;28;9709;-71
2022/04/18 07:28:44;;;;;;;;;4.00;3.25;;;;;18.83;44.78;101942.31;5068911;28;11362;-73
2022/04/18 07:31:10;;;;;;;;;4.25;4.00;;;;;18.83;44.86;101944.06;5069025;28;9604;-72
2022/04/18 07:33:35;;;;;;;;;5.00;4.00;;;;;18.82;45.21;101943.16;5069830;28;8990;-72
2022/04/18 07:36:01;;;;;;;;;3.00;3.00;;;;;18.82;44.90;101945.81;5068433;28;8778;-72
2022/04/18 07:41:10;;;;;;;;;3.75;3.75;;;;;18.83;45.11;101939.66;5069575;28;8778;-71
2022/04/18 07:43:35;;;;;;;;;5.00;4.00;;;;;18.83;45.00;101942.31;5069615;28;10405;-71
2022/04/18 07:46:02;;;;;;;;;3.75;3.75;;;;;18.87;44.88;101947.59;5068280;28;8790;-72
2022/04/18 07:48:28;;;;;;;;;2.50;2.50;;;;;18.97;45.01;101947.66;5070201;28;8778;-69
2022/04/18 07:53:37;;;;;;;;;3.00;3.00;;;;;19.34;48.07;101942.53;5073675;28;10323;-72
2022/04/18 07:56:03;;;;;;;;;4.00;4.00;;;;;19.45;51.83;101941.72;5073737;28;9737;-70
2022/04/18 07:58:28;;;;;;;;;5.50;5.00;;;;;19.56;51.60;101944.38;5073964;28;8774;-72
2022/04/18 08:00:53;;;;;;;;;4.75;3.75;;;;;19.60;52.76;101939.09;5072909;28;9165;-70
2022/04/18 08:03:18;;;;;;;;;7.75;7.75;;;;;19.68;54.67;101939.13;5073777;28;8801;-72
2022/04/18 08:05:44;;;;;;;;;5.00;5.00;;;;;19.70;56.09;101935.59;5073411;28;8825;-71
2022/04/18 08:08:09;;;;;;;;;7.75;5.00;;;;;19.75;58.77;101940.91;5073205;28;8827;-73
2022/04/18 08:10:36;;;;;;;;;9.75;8.75;;;;;19.48;52.37;101935.53;5073844;28;8772;-71
2022/04/18 08:13:03;;;;;;;;;5.75;5.75;;;;;19.39;47.48;101941.66;5072839;28;8794;-72
2022/04/18 08:15:29;;;;;;;;;6.50;5.50;;;;;19.28;46.07;101941.63;5073638;28;10535;-71
2022/04/18 08:17:54;;;;;;;;;7.75;6.00;;;;;19.12;41.19;101942.44;5072972;28;10007;-73
2022/04/18 08:20:19;;;;;;;;;2.50;2.50;;;;;18.79;40.06;101951.09;5072778;28;8786;-71
2022/04/18 08:22:45;;;;;;;;;5.00;3.75;;;;;18.61;40.41;101945.72;5070793;28;8839;-72
2022/04/18 08:25:11;;;;;;;;;3.00;3.00;;;;;18.37;36.76;101945.50;5073368;28;8897;-72
2022/04/18 08:27:37;;;;;;;;;7.00;7.00;;;;;18.17;36.00;101945.38;5072816;28;8805;-72
2022/04/18 08:30:03;;;;;;;;;10.75;8.00;;;;;18.14;35.94;101949.75;5073109;28;8957;-72
2022/04/18 08:32:32;;;;;;;;;8.00;8.00;;;;;18.21;36.33;101943.63;5070549;28;10261;-71
2022/04/18 08:35:00;;;;;;;;;6.00;6.00;;;;;18.17;35.90;101941.84;5092830;28;9850;-72
2022/04/18 08:37:26;;;;;;;;;8.75;7.75;;;;;18.12;34.59;101944.44;5093549;28;9856;-73
2022/04/18 08:39:51;;;;;;;;;8.00;8.00;;;;;18.11;34.99;101942.66;5093417;28;9943;-72
2022/04/18 08:42:21;;;;;;;;;7.25;6.25;;;;;18.17;35.50;101941.84;5082725;28;8776;-72
2022/04/18 08:44:47;;;;;;;;;9.00;9.00;;;;;18.17;35.00;101932.16;5071746;28;8791;-72
2022/04/18 08:52:43;;;;;;;;;8.75;7.00;;;;;18.46;35.38;101936.75;5072489;28;9882;-72
2022/04/18 08:52:45;;;;;;;;;7.00;7.00;;;;;18.29;35.78;101929.59;5071514;28;9830;-71
2022/04/18 08:55:11;;;;;;;;;8.75;8.25;;;;;18.31;34.67;101927.84;5072478;28;9968;-73
2022/04/18 08:57:36;;;;;;;;;8.50;7.50;;;;;18.47;34.51;101935.88;5072767;28;9971;-71
2022/04/18 09:00:06;;;;;;;;;9.75;9.00;;;;;18.27;34.13;101941.91;5072474;28;8800;-71
2022/04/18 09:02:32;;;;;;;;;9.25;9.00;;;;;18.29;34.74;101931.38;5071184;28;8754;-72
2022/04/18 09:04:57;;;;;;;;;9.25;8.00;;;;;18.40;34.54;101932.31;5071297;28;10641;-72
2022/04/18 09:07:23;;;;;;;;;4.75;3.75;;;;;18.30;34.18;101934.00;5072681;28;8824;-72
2022/04/18 09:09:54;;;;;;;;;5.50;5.50;;;;;18.49;34.28;101929.72;5071855;28;8809;-72
2022/04/18 09:12:27;;;;;;;;;5.00;5.00;;;;;18.56;34.10;101930.69;5071961;28;8795;-72
2022/04/18 09:14:53;;;;;;;;;7.00;7.00;;;;;18.53;34.40;101931.53;5072049;28;9758;-73
2022/04/18 09:17:29;;;;;;;;;6.75;6.75;;;;;18.59;33.97;101928.97;5071626;28;10134;-70
2022/04/18 09:20:11;;;;;;;;;7.50;6.00;;;;;18.72;33.86;101927.25;5072560;28;8801;-70
2022/04/18 09:22:45;;;;;;;;;8.00;8.00;;;;;18.78;33.42;101929.94;5075616;28;9880;-71
2022/04/18 09:25:19;;;;;;;;;5.25;4.25;;;;;18.83;33.50;101926.44;5072721;28;10030;-73
2022/04/18 09:27:58;;;;;;;;;6.25;6.25;;;;;18.80;33.46;101923.78;5072296;28;9758;-71
2022/04/18 09:30:24;;;;;;;;;6.00;5.00;;;;;18.68;32.37;101920.16;5072054;28;9770;-71
2022/04/18 09:33:07;;;;;;;;;8.00;6.00;;;;;18.65;31.50;101918.41;5070822;28;10060;-70
2022/04/18 09:35:33;;;;;;;;;7.75;5.50;;;;;18.70;33.57;101921.97;5073060;28;9964;-68
2022/04/18 09:38:04;;;;;;;;;4.00;4.00;;;;;18.67;32.75;101921.91;5075506;28;10952;-69
2022/04/18 09:40:37;;;;;;;;;4.00;4.00;;;;;18.81;31.83;101922.03;5074152;28;9849;-68
2022/04/18 09:43:03;;;;;;;;;6.25;5.00;;;;;18.87;32.49;101915.84;5070745;28;9948;-70
2022/04/18 09:45:28;;;;;;;;;7.00;4.75;;;;;18.73;34.40;101923.75;5071322;28;9957;-70
2022/04/18 09:47:56;;;;;;;;;8.00;8.00;;;;;18.94;33.40;101913.25;5071605;28;9967;-69
2022/04/18 09:53:15;;;;;;;;;10.50;8.50;;;;;18.95;31.36;101916.78;5069523;28;9960;-71
2022/04/18 09:55:44;;;;;;;;;9.25;8.25;;;;;19.05;31.02;101914.16;5071525;28;9848;-71
2022/04/18 09:58:11;;;;;;;;;8.25;8.00;;;;;19.02;30.67;101914.16;5072105;28;9995;-70
2022/04/18 10:00:36;;;;;;;;;6.75;6.75;;;;;19.00;30.30;101902.69;5071046;28;9920;-71
2022/04/18 10:03:02;;;;;;;;;7.50;7.50;;;;;19.01;30.90;101911.53;5069165;28;9956;-71
2022/04/18 10:05:28;;;;;;;;;9.00;8.50;;;;;19.04;30.24;101899.19;5070579;28;8783;-70
2022/04/18 10:07:55;;;;;;;;;8.25;6.50;;;;;18.72;29.80;101909.63;5071119;28;10021;-71
2022/04/18 10:10:20;;;;;;;;;9.00;7.00;;;;;18.83;30.49;101905.25;5071503;28;8770;-70
2022/04/18 10:12:46;;;;;;;;;8.00;8.00;;;;;18.89;29.63;101904.41;5068431;28;9938;-69
2022/04/18 10:15:11;;;;;;;;;9.25;9.25;;;;;18.94;30.12;101897.38;5071149;28;8815;-70
2022/04/18 10:17:38;;;;;;;;;8.50;8.00;;;;;18.96;30.14;101900.03;5070941;28;8807;-72
2022/04/18 10:20:22;;;;;;;;;8.25;8.25;;;;;18.91;29.92;101897.34;5070682;28;8771;-70
2022/04/18 10:23:15;;;;;;;;;8.00;6.25;;;;;18.75;30.13;101896.41;5068590;28;9967;-72
2022/04/18 10:26:01;;;;;;;;;8.75;8.25;;;;;19.00;29.98;101891.22;5068950;28;9880;-71
2022/04/18 10:28:34;;;;;;;;;7.00;7.00;;;;;19.09;29.61;101900.06;5068376;28;10076;-70
2022/04/18 10:31:07;;;;;;;;;9.25;9.25;;;;;19.20;29.95;101892.16;5070595;28;10078;-72
2022/04/18 10:33:32;;;;;;;;;9.25;9.25;;;;;19.22;29.65;101893.06;5070213;28;9933;-72
2022/04/18 10:36:02;;;;;;;;;11.00;11.00;;;;;19.21;29.32;101893.94;5070636;28;9942;-72
2022/04/18 10:38:31;;;;;;;;;8.50;8.25;;;;;19.09;29.47;101897.41;5071016;28;8869;-71
2022/04/18 10:41:14;;;;;;;;;12.75;9.50;;;;;19.09;29.72;101896.53;5070120;28;9924;-72
2022/04/18 10:44:18;;;;;;;;;9.00;8.00;;;;;19.29;30.11;101892.19;5070811;28;10503;-71
2022/04/18 10:46:53;;;;;;;;;10.50;9.25;;;;;19.41;29.84;101892.22;4989025;28;9922;-71
2022/04/18 10:49:20;;;;;;;;;11.25;9.50;;;;;19.46;29.78;101879.91;4988801;28;9870;-72
2022/04/18 10:51:48;;;;;;;;;10.00;6.00;;;;;19.28;30.11;101886.00;5032410;28;9997;-71
2022/04/18 10:54:15;;;;;;;;;9.00;9.00;;;;;19.36;29.86;101885.16;5070495;28;10498;-70
2022/04/18 10:56:52;;;;;;;;;6.00;6.00;;;;;19.29;29.86;101879.84;5069996;28;9626;-71
2022/04/18 10:59:20;;;;;;;;;6.00;6.00;;;;;19.28;29.95;101879.81;5070601;28;10580;-71
2022/04/18 11:01:46;;;;;;;;;9.25;9.25;;;;;19.39;29.57;101870.13;5069317;28;9851;-72
2022/04/18 11:04:12;;;;;;;;;7.00;7.00;;;;;19.50;29.75;101875.47;5070709;28;9956;-71
2022/04/18 11:06:38;;;;;;;;;5.00;5.00;;;;;19.40;29.85;101871.03;5067508;28;10130;-71
2022/04/18 11:09:07;;;;;;;;;10.25;9.00;;;;;19.38;29.74;101871.03;5069524;28;9779;-71
2022/04/18 11:11:35;;;;;;;;;6.25;6.25;;;;;19.53;29.60;101867.56;5071024;28;8779;-71
2022/04/18 11:14:01;;;;;;;;;8.25;8.25;;;;;19.38;29.37;101881.63;5070168;28;9754;-72
2022/04/18 11:16:26;;;;;;;;;10.75;7.00;;;;;19.59;29.23;101875.50;5069382;28;9835;-72
2022/04/18 11:19:05;;;;;;;;;8.50;7.75;;;;;19.57;29.23;101875.50;5070620;28;8782;-72
2022/04/18 11:21:51;;;;;;;;;7.50;7.00;;;;;19.69;29.69;101874.63;5070746;28;9569;-72
2022/04/18 11:24:38;;;;;;;;;8.25;6.25;;;;;19.72;28.70;101872.00;5069778;28;9798;-71
2022/04/18 11:27:23;;;;;;;;;4.50;4.50;;;;;19.70;27.94;101879.06;5070406;28;9741;-72
2022/04/18 11:30:01;;;;;;;;;6.00;5.75;;;;;19.69;28.01;101871.97;5069643;28;9720;-72
2022/04/18 11:32:29;;;;;;;;;5.50;5.50;;;;;19.99;31.13;101877.28;5070709;28;9756;-73
2022/04/18 11:34:56;;;;;;;;;6.00;6.00;;;;;19.82;34.30;101873.75;5070461;28;9663;-72
2022/04/18 11:37:31;;;;;;;;;3.00;2.00;;;;;19.75;31.06;101864.03;5070034;28;9807;-72
2022/04/18 11:39:58;;;;;;;;;7.25;5.75;;;;;19.71;32.54;101865.81;5070463;28;9693;-71
2022/04/18 11:42:31;;;;;;;;;4.00;4.00;;;;;19.62;31.40;101862.25;5070739;28;9560;-72
2022/04/18 11:44:59;;;;;;;;;5.00;5.00;;;;;19.40;30.61;101860.44;5069726;28;9633;-70
2022/04/18 11:47:27;;;;;;;;;6.00;6.00;;;;;19.37;31.35;101852.50;5070530;28;9684;-71
2022/04/18 11:50:01;;;;;;;;;5.00;4.25;;;;;19.19;32.61;101859.53;5070588;28;9552;-71
2022/04/18 11:52:39;;;;;;;;;2.75;2.75;;;;;19.37;30.25;101860.44;5069719;28;9739;-70
2022/04/18 11:55:07;;;;;;;;;3.00;3.00;;;;;19.38;29.77;101864.84;5070223;28;9626;-70